aviador You're here:

KRFD Decoded Metar

ROCKFORD in IL, USA
Report Time2017-09-20 11:54:00
UTC Time2017-09-20 12:53:32
Flight Rules vfr VFR
Wind150° at 09 kt
W.Decomp.*RWY 19: 7.1 kt HW 5.5 kt LCW
RWY 07: 1.3 kt HW 8.9 kt RCW
W.Rank150° ranks 10
Current wind is above 150° avg. (7.6)
Visibility9656 m
Phenomena:Mist
Clouds:Scattered 140 Hf
Expected CloudBase > 800 ft AGL from Temp-Dew spread
CeilingNone
Temp19°C (ISA +5)
Dew Point17°C (88% RH)
AAT18.1°C
QNH1012 hPa
Density Alt1,657 ft
Elevation725 ft
Report Wrong Elevation
Raw Report
KRFD 201154Z 15009KT 6SM BR SCT140 19/17 A2988 RMK AO2 SLP115
T01890172 10189 20172 58010=

Extra information for KRFD:More info

Metar Taf Metar & Taf Last 4 Metars F.Rules Stats Wind Profile Meteogram Temp Stats Airport Information Weather charts Add Link Nearby VenuesMetar ALERT Operation Metar Decoded Social comments

AIRNAV info for KRFD